Terminal Aerodrome Forecast
Issued by NWS

Home | Current Version | Previous Version | Text Only | Print | Product List | Glossary On
Versions: 1 2 3 4 5 6 7 8 9 10 11 12
000
FTUS44 KOUN 172340
TAFHBR
TAF
KHBR 172340Z 1800/1824 07012KT P6SM -RA FEW018 OVC040
     FM180230 07008KT P6SM FEW015 OVC035
     FM180700 12006KT P6SM BKN015
     FM181600 17012KT P6SM SCT035
     FM182000 17013G20KT P6SM FEW050=

USA.gov is the U.S. government's official web portal to all federal, state and local government web resources and services.